createdAt,value
2018-07-24T00:00:00.957Z,97.66
2018-07-24T00:01:08.970Z,97.61
2018-07-24T00:02:16.992Z,98.19
2018-07-24T00:03:25.041Z,97.90
2018-07-24T00:04:33.114Z,97.95
2018-07-24T00:05:41.177Z,97.85
2018-07-24T00:06:49.248Z,97.95
2018-07-24T00:07:57.318Z,97.85
2018-07-24T00:09:05.362Z,97.75
2018-07-24T00:10:13.447Z,97.85
2018-07-24T00:11:21.511Z,97.28
2018-07-24T00:12:29.580Z,97.47
2018-07-24T00:13:37.868Z,97.28
2018-07-24T00:14:45.888Z,97.95
2018-07-24T00:15:53.976Z,97.52
2018-07-24T00:17:02.037Z,97.66
2018-07-24T00:18:10.098Z,97.28
2018-07-24T00:19:18.641Z,97.28
2018-07-24T00:20:26.448Z,97.47
2018-07-24T00:21:35.095Z,97.47
2018-07-24T00:22:42.575Z,97.37
2018-07-24T00:23:50.632Z,97.28
2018-07-24T00:24:58.709Z,97.56
2018-07-24T00:26:06.767Z,97.08
2018-07-24T00:27:14.842Z,97.37
2018-07-24T00:28:22.891Z,97.85
2018-07-24T00:29:30.950Z,98.14
2018-07-24T00:30:39.040Z,97.75
2018-07-24T00:31:47.103Z,98.04
2018-07-24T00:32:55.405Z,97.85
2018-07-24T00:34:03.216Z,97.95
2018-07-24T00:35:11.298Z,97.66
2018-07-24T00:36:19.354Z,97.85
2018-07-24T00:37:27.628Z,98.04
2018-07-24T00:38:35.677Z,97.37
2018-07-24T00:39:43.810Z,98.24
2018-07-24T00:40:51.813Z,97.18
2018-07-24T00:41:59.897Z,98.04
2018-07-24T00:43:07.953Z,98.04
2018-07-24T00:44:16.266Z,97.85
2018-07-24T00:45:24.189Z,97.95
2018-07-24T00:46:32.351Z,97.95
2018-07-24T00:47:40.791Z,97.66
2018-07-24T00:48:48.477Z,97.75
2018-07-24T00:49:56.552Z,97.71
2018-07-24T00:51:04.617Z,98.28
2018-07-24T00:52:12.887Z,97.99
2018-07-24T00:53:21.210Z,98.28
2018-07-24T00:54:29.022Z,98.28
2018-07-24T00:55:37.179Z,98.09
2018-07-24T00:56:45.126Z,97.80
2018-07-24T00:57:53.257Z,97.75
2018-07-24T00:59:01.281Z,97.85
2018-07-24T01:00:09.345Z,97.80
2018-07-24T01:01:17.420Z,97.85
2018-07-24T01:02:25.472Z,97.75
2018-07-24T01:03:34.579Z,97.85
2018-07-24T01:04:41.696Z,97.75
2018-07-24T01:05:49.688Z,98.04
2018-07-24T01:06:57.739Z,97.90
2018-07-24T01:08:05.876Z,97.75
2018-07-24T01:09:13.875Z,97.75
2018-07-24T01:10:21.942Z,97.42
2018-07-24T01:11:30.206Z,97.13
2018-07-24T01:12:38.265Z,97.42
2018-07-24T01:13:46.332Z,97.90
2018-07-24T01:14:54.383Z,97.13
2018-07-24T01:16:02.520Z,97.23
2018-07-24T01:17:10.526Z,97.52
2018-07-24T01:18:18.580Z,97.23
2018-07-24T01:19:26.653Z,97.80
2018-07-24T01:20:34.719Z,97.80
2018-07-24T01:21:42.990Z,97.80
2018-07-24T01:22:51.260Z,97.90
2018-07-24T01:23:59.325Z,97.90
2018-07-24T01:25:07.387Z,98.09
2018-07-24T01:26:15.443Z,98.18
2018-07-24T01:27:23.517Z,97.61
2018-07-24T01:28:31.587Z,98.18
2018-07-24T01:29:39.657Z,97.99
2018-07-24T01:30:47.711Z,97.61
2018-07-24T01:31:55.757Z,97.71
2018-07-24T01:33:04.098Z,97.99
2018-07-24T01:34:11.912Z,97.80
2018-07-24T01:35:19.977Z,97.61
2018-07-24T01:36:28.027Z,97.80
2018-07-24T01:37:36.087Z,97.71
2018-07-24T01:38:44.263Z,98.09
2018-07-24T01:39:52.225Z,97.52
2018-07-24T01:41:00.305Z,97.99
2018-07-24T01:42:08.369Z,98.09
2018-07-24T01:43:16.463Z,98.09
2018-07-24T01:44:24.605Z,97.42
2018-07-24T01:45:32.575Z,97.37
2018-07-24T01:46:40.899Z,97.33
2018-07-24T01:47:48.690Z,97.52
2018-07-24T01:48:56.756Z,97.04
2018-07-24T01:50:04.832Z,96.75
2018-07-24T01:51:12.932Z,96.89
2018-07-24T01:52:20.964Z,97.08
2018-07-24T01:53:30.092Z,96.99
2018-07-24T01:54:37.101Z,96.99
2018-07-24T01:55:45.159Z,96.80
2018-07-24T01:56:53.244Z,96.80
2018-07-24T01:58:02.339Z,96.99
2018-07-24T01:59:09.371Z,96.70
2018-07-24T02:00:17.438Z,96.80
2018-07-24T02:01:25.539Z,97.08
2018-07-24T02:02:33.568Z,97.08
2018-07-24T02:03:41.636Z,97.08
2018-07-24T02:04:49.900Z,96.80
2018-07-24T02:05:57.975Z,96.61
2018-07-24T02:07:06.011Z,97.28
2018-07-24T02:08:14.119Z,96.70
2018-07-24T02:09:22.177Z,96.61
2018-07-24T02:10:30.236Z,96.70
2018-07-24T02:11:38.306Z,97.18
2018-07-24T02:12:46.362Z,96.61
2018-07-24T02:13:54.418Z,96.80
2018-07-24T02:15:02.578Z,96.80
2018-07-24T02:16:10.545Z,96.89
2018-07-24T02:17:18.605Z,96.70
2018-07-24T02:18:26.676Z,96.70
2018-07-24T02:19:34.740Z,96.80
2018-07-24T02:20:42.816Z,96.80
2018-07-24T02:21:50.895Z,96.80
2018-07-24T02:22:58.945Z,96.51
2018-07-24T02:24:07.022Z,96.51
2018-07-24T02:25:15.513Z,96.70
2018-07-24T02:26:23.344Z,96.51
2018-07-24T02:27:31.727Z,96.51
2018-07-24T02:28:39.477Z,96.51
2018-07-24T02:29:47.549Z,96.80
2018-07-24T02:30:55.769Z,96.70
2018-07-24T02:32:03.880Z,96.32
2018-07-24T02:33:11.935Z,96.51
2018-07-24T02:34:20.004Z,95.84
2018-07-24T02:35:28.059Z,96.03
2018-07-24T02:36:36.129Z,95.94
2018-07-24T02:37:44.198Z,95.84
2018-07-24T02:38:52.259Z,95.84
2018-07-24T02:40:00.317Z,96.22
2018-07-24T02:41:08.400Z,96.13
2018-07-24T02:42:16.465Z,95.46
2018-07-24T02:43:24.521Z,95.75
2018-07-24T02:44:33.442Z,96.22
2018-07-24T02:45:40.672Z,96.03
2018-07-24T02:46:48.970Z,95.75
2018-07-24T02:47:56.791Z,95.84
2018-07-24T02:49:04.860Z,96.03
2018-07-24T02:50:12.921Z,95.94
2018-07-24T02:51:20.973Z,96.22
2018-07-24T02:52:29.043Z,95.84
2018-07-24T02:53:37.101Z,95.84
2018-07-24T02:54:45.192Z,95.36
2018-07-24T02:55:53.238Z,95.75
2018-07-24T02:57:01.298Z,95.65
2018-07-24T02:58:09.410Z,95.84
2018-07-24T02:59:17.437Z,95.84
2018-07-24T03:00:25.738Z,96.03
2018-07-24T03:01:34.126Z,95.84
2018-07-24T03:02:41.636Z,95.94
2018-07-24T03:03:49.709Z,95.84
2018-07-24T03:04:57.749Z,95.84
2018-07-24T03:06:05.800Z,96.03
2018-07-24T03:07:13.883Z,95.75
2018-07-24T03:08:21.949Z,95.84
2018-07-24T03:09:30.013Z,96.13
2018-07-24T03:10:38.076Z,95.65
2018-07-24T03:11:46.125Z,95.75
2018-07-24T03:12:54.205Z,95.65
2018-07-24T03:14:03.301Z,95.84
2018-07-24T03:15:10.343Z,95.84
2018-07-24T03:16:18.534Z,95.27
2018-07-24T03:17:26.563Z,95.46
2018-07-24T03:18:34.520Z,95.07
2018-07-24T03:19:42.588Z,94.79
2018-07-24T03:20:50.656Z,95.27
2018-07-24T03:21:58.723Z,94.98
2018-07-24T03:23:06.844Z,95.17
2018-07-24T03:24:14.849Z,95.46
2018-07-24T03:25:22.914Z,95.17
2018-07-24T03:26:30.987Z,94.79
2018-07-24T03:27:39.296Z,94.79
2018-07-24T03:28:47.223Z,94.79
2018-07-24T03:29:55.193Z,95.07
2018-07-24T03:31:03.241Z,94.70
2018-07-24T03:32:11.569Z,95.46
2018-07-24T03:33:19.353Z,95.17
2018-07-24T03:34:27.987Z,94.70
2018-07-24T03:35:35.463Z,94.79
2018-07-24T03:36:43.565Z,94.89
2018-07-24T03:37:51.632Z,95.46
2018-07-24T03:38:59.696Z,94.89
2018-07-24T03:40:07.757Z,95.27
2018-07-24T03:41:15.792Z,95.07
2018-07-24T03:42:23.948Z,95.46
2018-07-24T03:43:31.959Z,95.17
2018-07-24T03:44:40.024Z,95.07
2018-07-24T03:45:48.082Z,95.36
2018-07-24T03:46:56.161Z,95.17
2018-07-24T03:48:04.263Z,95.46
2018-07-24T03:49:12.286Z,94.98
2018-07-24T03:50:20.347Z,95.17
2018-07-24T03:51:28.402Z,94.60
2018-07-24T03:52:36.475Z,94.79
2018-07-24T03:53:44.538Z,94.60
2018-07-24T03:54:52.609Z,94.70
2018-07-24T03:56:00.672Z,94.98
2018-07-24T03:57:08.777Z,94.89
2018-07-24T03:58:16.797Z,94.60
2018-07-24T03:59:24.920Z,94.70
2018-07-24T04:00:32.937Z,94.60
2018-07-24T04:01:41.021Z,94.41
2018-07-24T04:02:49.058Z,94.70
2018-07-24T04:03:57.134Z,94.60
2018-07-24T04:05:05.365Z,94.70
2018-07-24T04:06:13.448Z,94.60
2018-07-24T04:07:21.527Z,94.51
2018-07-24T04:08:31.881Z,94.22
2018-07-24T04:09:37.666Z,93.93
2018-07-24T04:10:46.100Z,94.89
2018-07-24T04:11:54.529Z,94.89
2018-07-24T04:13:02.405Z,94.79
2018-07-24T04:14:09.925Z,94.60
2018-07-24T04:15:18.058Z,94.70
2018-07-24T04:16:26.050Z,94.02
2018-07-24T04:17:34.121Z,94.41
2018-07-24T04:18:42.277Z,94.22
2018-07-24T04:19:51.299Z,94.41
2018-07-24T04:20:58.323Z,93.93
2018-07-24T04:22:06.377Z,94.22
2018-07-24T04:23:14.445Z,94.12
2018-07-24T04:24:22.506Z,94.31
2018-07-24T04:25:30.547Z,94.51
2018-07-24T04:26:38.847Z,93.93
2018-07-24T04:27:47.946Z,93.93
2018-07-24T04:28:54.996Z,93.93
2018-07-24T04:30:03.108Z,93.84
2018-07-24T04:31:11.226Z,93.84
2018-07-24T04:32:19.363Z,93.79
2018-07-24T04:33:27.442Z,94.02
2018-07-24T04:34:35.487Z,94.07
2018-07-24T04:35:43.798Z,93.60
2018-07-24T04:36:51.663Z,93.79
2018-07-24T04:37:59.701Z,93.88
2018-07-24T04:39:07.764Z,93.79
2018-07-24T04:40:15.848Z,93.50
2018-07-24T04:41:23.887Z,93.98
2018-07-24T04:42:31.950Z,93.98
2018-07-24T04:43:40.021Z,93.79
2018-07-24T04:44:48.089Z,93.40
2018-07-24T04:45:56.198Z,93.31
2018-07-24T04:47:04.255Z,93.12
2018-07-24T04:48:12.279Z,93.21
2018-07-24T04:49:20.379Z,93.40
2018-07-24T04:50:28.412Z,93.12
2018-07-24T04:51:36.688Z,93.26
2018-07-24T04:52:45.448Z,93.26
2018-07-24T04:53:52.819Z,93.74
2018-07-24T04:55:00.954Z,93.12
2018-07-24T04:56:08.949Z,93.45
2018-07-24T04:57:17.029Z,93.64
2018-07-24T04:58:25.148Z,93.16
2018-07-24T04:59:33.170Z,93.45
2018-07-24T05:00:41.208Z,92.97
2018-07-24T05:01:49.281Z,93.64
2018-07-24T05:02:57.533Z,93.16
2018-07-24T05:04:05.582Z,93.16
2018-07-24T05:05:13.686Z,93.30
2018-07-24T05:06:22.545Z,93.40
2018-07-24T05:07:29.804Z,93.30
2018-07-24T05:08:37.870Z,93.30
2018-07-24T05:09:45.914Z,92.73
2018-07-24T05:10:54.002Z,93.07
2018-07-24T05:12:02.092Z,92.78
2018-07-24T05:13:10.355Z,92.78
2018-07-24T05:14:18.410Z,92.49
2018-07-24T05:15:26.488Z,92.68
2018-07-24T05:16:34.560Z,92.30
2018-07-24T05:17:42.705Z,92.25
2018-07-24T05:18:50.688Z,91.86
2018-07-24T05:19:58.754Z,91.67
2018-07-24T05:21:06.939Z,91.86
2018-07-24T05:22:14.887Z,91.53
2018-07-24T05:23:22.970Z,90.67
2018-07-24T05:24:31.024Z,90.95
2018-07-24T05:25:39.118Z,90.90
2018-07-24T05:26:47.236Z,90.14
2018-07-24T05:27:55.199Z,90.14
2018-07-24T05:29:03.548Z,90.90
2018-07-24T05:30:13.486Z,91.19
2018-07-24T05:31:20.625Z,90.23
2018-07-24T05:32:28.685Z,90.23
2018-07-24T05:33:37.282Z,90.61
2018-07-24T05:34:44.825Z,91.00
2018-07-24T05:35:52.897Z,90.23
2018-07-24T05:37:00.969Z,90.90
2018-07-24T05:38:09.021Z,90.23
2018-07-24T05:39:17.156Z,89.85
2018-07-24T05:40:25.164Z,90.61
2018-07-24T05:41:33.635Z,90.08
2018-07-24T05:42:41.294Z,90.56
2018-07-24T05:43:49.366Z,90.18
2018-07-24T05:44:57.456Z,91.05
2018-07-24T05:46:05.486Z,90.66
2018-07-24T05:47:13.591Z,90.28
2018-07-24T05:48:21.654Z,90.28
2018-07-24T05:49:29.702Z,90.37
2018-07-24T05:50:38.038Z,89.70
2018-07-24T05:51:45.910Z,89.99
2018-07-24T05:52:54.158Z,90.37
2018-07-24T05:54:06.232Z,90.28
2018-07-24T05:55:13.675Z,89.70
2018-07-24T05:56:21.028Z,90.08
2018-07-24T05:57:29.089Z,89.22
2018-07-24T05:58:37.276Z,89.89
2018-07-24T05:59:45.525Z,89.46
2018-07-24T06:00:53.880Z,89.36
2018-07-24T06:02:01.746Z,89.26
2018-07-24T06:03:12.450Z,90.03
2018-07-24T06:04:24.462Z,88.69
2018-07-24T06:05:28.523Z,89.36
2018-07-24T06:06:36.645Z,88.88
2018-07-24T06:07:44.649Z,89.65
2018-07-24T06:08:52.737Z,89.36
2018-07-24T06:10:00.789Z,89.65
2018-07-24T06:11:08.847Z,89.40
2018-07-24T06:12:16.917Z,89.26
2018-07-24T06:13:24.983Z,88.79
2018-07-24T06:14:33.162Z,89.31
2018-07-24T06:15:41.130Z,89.40
2018-07-24T06:18:06.606Z,89.22
2018-07-24T06:19:15.443Z,88.06
2018-07-24T06:20:22.487Z,88.16
2018-07-24T06:21:30.555Z,88.45
2018-07-24T06:22:38.673Z,87.82
2018-07-24T06:23:46.691Z,88.01
2018-07-24T06:24:54.764Z,87.82
2018-07-24T06:26:02.824Z,88.39
2018-07-24T06:27:10.945Z,87.82
2018-07-24T06:29:31.879Z,86.85
2018-07-24T06:30:40.040Z,88.10
2018-07-24T06:31:48.008Z,87.86
2018-07-24T06:32:56.073Z,86.22
2018-07-24T06:34:04.133Z,86.71
2018-07-24T06:35:12.229Z,85.94
2018-07-24T06:36:20.294Z,86.32
2018-07-24T06:37:28.351Z,86.90
2018-07-24T06:38:36.509Z,86.80
2018-07-24T06:39:44.737Z,86.32
2018-07-24T06:40:52.751Z,85.55
2018-07-24T06:42:00.837Z,85.36
2018-07-24T06:43:08.893Z,85.17
2018-07-24T06:44:17.141Z,84.25
2018-07-24T06:45:25.029Z,84.06
2018-07-24T06:46:33.096Z,85.98
2018-07-24T06:47:41.168Z,85.98
2018-07-24T06:48:49.240Z,83.96
2018-07-24T06:49:57.296Z,83.96
2018-07-24T06:51:05.358Z,85.60
2018-07-24T06:52:13.493Z,86.18
2018-07-24T06:53:21.518Z,86.75
2018-07-24T06:54:29.582Z,85.02
2018-07-24T06:55:37.641Z,86.18
2018-07-24T06:56:45.822Z,86.75
2018-07-24T06:57:53.785Z,87.52
2018-07-24T06:59:01.850Z,84.77
2018-07-24T07:00:09.929Z,83.14
2018-07-24T07:01:17.989Z,83.23
2018-07-24T07:02:26.040Z,81.98
2018-07-24T07:03:34.181Z,83.42
2018-07-24T07:04:42.196Z,82.85
2018-07-24T07:05:50.265Z,82.12
2018-07-24T07:06:58.369Z,82.79
2018-07-24T07:08:06.776Z,83.85
2018-07-24T07:09:14.470Z,83.47
2018-07-24T07:10:22.606Z,82.50
2018-07-24T07:11:30.616Z,82.21
2018-07-24T07:12:40.379Z,80.19
2018-07-24T07:13:46.762Z,79.71
2018-07-24T07:14:54.839Z,81.20
2018-07-24T07:16:03.031Z,80.91
2018-07-24T07:17:11.004Z,79.94
2018-07-24T07:18:19.056Z,80.52
2018-07-24T07:19:27.167Z,79.31
2018-07-24T07:20:35.187Z,77.19
2018-07-24T07:21:43.299Z,78.58
2018-07-24T07:22:51.320Z,77.07
2018-07-24T07:23:59.394Z,75.27
2018-07-24T07:25:08.058Z,74.73
2018-07-24T07:26:16.457Z,73.46
2018-07-24T07:27:24.187Z,69.62
2018-07-24T07:28:32.265Z,69.46
2018-07-24T07:29:40.631Z,67.88
2018-07-24T07:30:48.421Z,66.66
2018-07-24T07:31:56.478Z,64.65
2018-07-24T07:33:04.560Z,63.23
2018-07-24T07:34:13.234Z,63.65
2018-07-24T07:35:20.695Z,62.26
2018-07-24T07:36:28.979Z,60.61
2018-07-24T07:37:37.037Z,61.12
2018-07-24T07:38:45.096Z,58.79
2018-07-24T07:39:53.299Z,56.10
2018-07-24T07:41:01.250Z,58.37
2018-07-24T07:42:09.340Z,56.85
2018-07-24T07:43:17.431Z,56.87
2018-07-24T07:44:26.061Z,56.20
2018-07-24T07:45:33.575Z,57.23
2018-07-24T07:46:41.652Z,56.39
2018-07-24T07:47:49.769Z,56.77
2018-07-24T07:48:57.805Z,56.12
2018-07-24T07:50:05.866Z,54.66
2018-07-24T07:51:14.209Z,56.45
2018-07-24T07:52:22.048Z,54.01
2018-07-24T07:53:30.114Z,53.91
2018-07-24T07:54:38.201Z,56.25
2018-07-24T07:55:46.531Z,56.86
2018-07-24T07:56:54.367Z,56.11
2018-07-24T07:58:02.527Z,56.11
2018-07-24T07:59:10.609Z,53.89
2018-07-24T08:00:18.598Z,51.36
2018-07-24T08:01:26.882Z,52.04
2018-07-24T08:02:35.303Z,52.12
2018-07-24T08:03:43.041Z,51.56
2018-07-24T08:04:51.120Z,51.36
2018-07-24T08:05:59.419Z,51.63
2018-07-24T08:07:07.492Z,51.43
2018-07-24T08:08:15.534Z,52.12
2018-07-24T08:09:23.652Z,54.65
2018-07-24T08:10:31.744Z,54.46
2018-07-24T08:11:39.821Z,52.53
2018-07-24T08:12:47.888Z,52.04
2018-07-24T08:13:56.007Z,49.54
2018-07-24T08:15:04.043Z,51.46
2018-07-24T08:16:12.340Z,50.36
2018-07-24T08:17:20.419Z,54.62
2018-07-24T08:18:28.503Z,52.02
2018-07-24T08:19:36.666Z,51.04
2018-07-24T08:20:44.653Z,51.63
2018-07-24T08:21:52.742Z,50.26
2018-07-24T08:24:16.377Z,50.87
2018-07-24T08:25:24.466Z,51.26
2018-07-24T08:26:32.798Z,53.87
2018-07-24T08:27:40.856Z,55.82
2018-07-24T08:28:49.172Z,53.02
2018-07-24T08:29:56.986Z,51.17
2018-07-24T08:31:05.048Z,50.48
2018-07-24T08:32:13.240Z,52.02
2018-07-24T08:33:21.497Z,52.02
2018-07-24T08:34:29.324Z,50.92
2018-07-24T08:35:37.394Z,55.27
2018-07-24T08:36:45.445Z,54.38
2018-07-24T08:37:53.565Z,56.74
2018-07-24T08:39:01.643Z,54.91
2018-07-24T08:40:09.744Z,52.28
2018-07-24T08:41:17.811Z,52.40
2018-07-24T08:42:25.868Z,55.72
2018-07-24T08:43:33.976Z,54.19
2018-07-24T08:44:42.068Z,52.85
2018-07-24T08:45:50.189Z,49.37
2018-07-24T08:46:58.227Z,52.70
2018-07-24T08:48:06.299Z,49.29
2018-07-24T08:49:17.529Z,49.61
2018-07-24T08:50:23.464Z,49.80
2018-07-24T08:51:31.554Z,51.39
2018-07-24T08:52:40.032Z,48.36
2018-07-24T08:53:48.110Z,50.22
2018-07-24T08:54:56.003Z,48.36
2018-07-24T08:56:03.879Z,50.68
2018-07-24T08:57:12.060Z,48.83
2018-07-24T08:58:20.039Z,47.77
2018-07-24T08:59:28.124Z,50.90
2018-07-24T09:00:36.242Z,53.25
2018-07-24T09:01:48.406Z,47.19
2018-07-24T09:02:56.431Z,48.16
2018-07-24T09:04:04.565Z,46.60
2018-07-24T09:05:12.578Z,46.11
2018-07-24T09:06:20.668Z,50.98
2018-07-24T09:07:28.747Z,49.71
2018-07-24T09:08:36.835Z,52.44
2018-07-24T09:09:44.916Z,51.27
2018-07-24T09:10:53.008Z,46.95
2018-07-24T09:12:01.088Z,51.14
2018-07-24T09:13:09.163Z,55.02
2018-07-24T09:14:17.249Z,52.29
2018-07-24T09:15:25.322Z,55.41
2018-07-24T09:16:33.420Z,54.14
2018-07-24T09:17:41.520Z,53.46
2018-07-24T09:18:49.589Z,52.78
2018-07-24T09:19:57.657Z,53.56
2018-07-24T09:21:05.735Z,54.31
2018-07-24T09:22:13.832Z,55.48
2018-07-24T09:23:21.913Z,54.90
2018-07-24T09:24:29.999Z,54.77
2018-07-24T09:25:38.078Z,51.04
2018-07-24T09:26:46.159Z,57.71
2018-07-24T09:27:54.243Z,57.51
2018-07-24T09:29:02.337Z,55.47
2018-07-24T09:30:10.406Z,55.54
2018-07-24T09:31:18.488Z,56.12
2018-07-24T09:32:26.563Z,61.74
2018-07-24T09:33:34.640Z,61.44
2018-07-24T09:34:42.717Z,61.93
2018-07-24T09:35:51.058Z,62.03
2018-07-24T09:36:59.072Z,58.21
2018-07-24T09:38:07.423Z,63.65
2018-07-24T09:39:15.218Z,60.05
2018-07-24T09:40:23.360Z,56.85
2018-07-24T09:41:31.601Z,61.97
2018-07-24T09:42:39.693Z,62.84
2018-07-24T09:43:47.761Z,57.98
2018-07-24T09:44:55.813Z,63.98
2018-07-24T09:46:04.014Z,64.36
2018-07-24T09:47:11.987Z,62.39
2018-07-24T09:48:20.074Z,62.88
2018-07-24T09:49:28.146Z,62.91
2018-07-24T09:50:36.252Z,58.12
2018-07-24T09:51:44.297Z,59.58
2018-07-24T09:52:52.373Z,64.53
2018-07-24T09:55:14.783Z,66.47
2018-07-24T09:56:22.942Z,63.46
2018-07-24T09:57:30.948Z,61.42
2018-07-24T09:58:39.029Z,65.89
2018-07-24T09:59:47.102Z,61.32
2018-07-24T10:00:55.154Z,60.45
2018-07-24T10:02:03.301Z,61.81
2018-07-24T10:03:11.574Z,63.95
2018-07-24T10:04:19.395Z,60.09
2018-07-24T10:05:27.725Z,66.66
2018-07-24T10:06:35.718Z,60.94
2018-07-24T10:07:53.074Z,62.88
2018-07-24T10:08:52.307Z,65.89
2018-07-24T10:10:00.681Z,65.30
2018-07-24T10:11:08.563Z,64.17
2018-07-24T10:12:16.867Z,61.07
2018-07-24T10:13:24.752Z,60.58
2018-07-24T10:14:32.679Z,61.35
2018-07-24T10:15:40.749Z,63.01
2018-07-24T10:16:48.841Z,59.22
2018-07-24T10:17:56.897Z,58.51
2018-07-24T10:19:04.968Z,59.51
2018-07-24T10:20:13.057Z,62.39
2018-07-24T10:21:21.120Z,61.81
2018-07-24T10:22:29.200Z,63.85
2018-07-24T10:23:37.267Z,58.93
2018-07-24T10:24:45.329Z,60.28
2018-07-24T10:25:53.434Z,63.98
2018-07-24T10:27:01.911Z,62.71
2018-07-24T10:28:10.332Z,58.05
2018-07-24T10:29:18.045Z,60.19
2018-07-24T10:30:27.148Z,62.04
2018-07-24T10:31:34.211Z,61.55
2018-07-24T10:32:42.335Z,59.31
2018-07-24T10:33:50.352Z,57.28
2018-07-24T10:34:58.716Z,58.34
2018-07-24T10:36:06.547Z,62.23
2018-07-24T10:37:14.584Z,64.17
2018-07-24T10:38:22.661Z,66.34
2018-07-24T10:39:30.749Z,65.27
2018-07-24T10:40:38.921Z,62.45
2018-07-24T10:41:47.022Z,61.38
2018-07-24T10:42:55.011Z,59.83
2018-07-24T10:44:03.036Z,63.55
2018-07-24T10:45:11.281Z,56.36
2018-07-24T10:46:19.171Z,55.46
2018-07-24T10:47:27.249Z,57.76
2018-07-24T10:48:35.345Z,58.54
2018-07-24T10:49:43.389Z,57.76
2018-07-24T10:50:51.460Z,60.58
2018-07-24T10:51:59.622Z,59.41
2018-07-24T10:53:07.627Z,60.77
2018-07-24T10:54:15.665Z,56.60
2018-07-24T10:55:23.770Z,59.03
2018-07-24T10:56:31.834Z,62.81
2018-07-24T10:57:40.975Z,61.74
2018-07-24T10:58:48.605Z,61.29
2018-07-24T10:59:56.079Z,59.34
2018-07-24T11:01:04.210Z,58.18
2018-07-24T11:02:12.223Z,55.07
2018-07-24T11:03:20.259Z,59.34
2018-07-24T11:04:28.368Z,54.20
2018-07-24T11:05:36.434Z,56.72
2018-07-24T11:06:44.500Z,56.75
2018-07-24T11:07:52.568Z,57.33
2018-07-24T11:09:00.685Z,56.62
2018-07-24T11:10:08.926Z,56.14
2018-07-24T11:11:17.011Z,54.49
2018-07-24T11:12:25.060Z,58.28
2018-07-24T11:13:33.147Z,54.97
2018-07-24T11:14:41.814Z,54.88
2018-07-24T11:15:49.338Z,53.42
2018-07-24T11:16:57.624Z,58.37
2018-07-24T11:18:05.585Z,56.34
2018-07-24T11:19:13.525Z,57.69
2018-07-24T11:20:21.602Z,60.31
2018-07-24T11:21:29.676Z,58.86
2018-07-24T11:22:37.914Z,53.74
2018-07-24T11:23:45.809Z,54.42
2018-07-24T11:24:55.038Z,57.92
2018-07-24T11:26:01.971Z,55.00
2018-07-24T11:27:10.044Z,56.07
2018-07-24T11:28:18.121Z,53.54
2018-07-24T11:29:26.188Z,56.26
2018-07-24T11:30:34.255Z,59.76
2018-07-24T11:31:45.364Z,54.35
2018-07-24T11:32:50.550Z,58.50
2018-07-24T11:33:59.305Z,55.80
2018-07-24T11:35:06.543Z,53.08
2018-07-24T11:36:14.709Z,54.22
2018-07-24T11:37:22.730Z,54.61
2018-07-24T11:38:30.797Z,55.46
2018-07-24T11:39:38.860Z,54.78
2018-07-24T11:40:46.930Z,56.60
2018-07-24T11:41:54.999Z,55.43
2018-07-24T11:43:03.066Z,56.01
2018-07-24T11:44:11.591Z,55.53
2018-07-24T11:45:19.416Z,54.46
2018-07-24T11:46:27.660Z,56.40
2018-07-24T11:47:35.592Z,59.70
2018-07-24T11:48:43.677Z,56.70
2018-07-24T11:49:51.728Z,57.96
2018-07-24T11:50:59.860Z,56.14
2018-07-24T11:52:07.870Z,55.07
2018-07-24T11:53:15.922Z,54.29
2018-07-24T11:54:24.290Z,55.55
2018-07-24T11:55:32.403Z,58.67
2018-07-24T11:56:40.855Z,61.19
2018-07-24T11:57:49.617Z,58.76
2018-07-24T11:58:57.098Z,59.38
2018-07-24T12:00:05.491Z,58.89
2018-07-24T12:01:13.288Z,61.25
2018-07-24T12:02:21.258Z,62.51
2018-07-24T12:03:29.386Z,55.80
2018-07-24T12:04:37.397Z,57.85
2018-07-24T12:05:45.443Z,58.04
2018-07-24T12:06:53.820Z,55.51
2018-07-24T12:08:01.718Z,56.20
2018-07-24T12:09:09.903Z,54.93
2018-07-24T12:10:17.943Z,57.17
2018-07-24T12:11:26.094Z,55.03
2018-07-24T12:12:34.187Z,56.29
2018-07-24T12:13:42.186Z,52.50
2018-07-24T12:14:51.381Z,56.00
2018-07-24T12:15:58.409Z,57.36
2018-07-24T12:17:06.418Z,59.79
2018-07-24T12:18:15.093Z,55.51
2018-07-24T12:19:22.468Z,53.86
2018-07-24T12:20:31.804Z,53.28
2018-07-24T12:21:39.869Z,50.75
2018-07-24T12:22:46.444Z,56.16
2018-07-24T12:23:55.366Z,56.65
2018-07-24T12:25:02.429Z,49.78
2018-07-24T12:26:10.566Z,48.68
2018-07-24T12:27:18.605Z,50.14
2018-07-24T12:28:26.673Z,50.24
2018-07-24T12:29:34.728Z,52.45
2018-07-24T12:30:42.802Z,51.01
2018-07-24T12:31:50.969Z,53.54
2018-07-24T12:32:59.147Z,56.56
2018-07-24T12:34:07.411Z,50.85
2018-07-24T12:35:15.488Z,50.85
2018-07-24T12:36:23.569Z,54.35
2018-07-24T12:37:31.650Z,51.62
2018-07-24T12:38:39.708Z,55.22
2018-07-24T12:39:47.790Z,56.87
2018-07-24T12:40:55.832Z,56.29
2018-07-24T12:42:04.057Z,56.97
2018-07-24T12:43:12.013Z,53.96
2018-07-24T12:44:20.101Z,54.25
2018-07-24T12:45:28.533Z,55.54
2018-07-24T12:46:36.255Z,56.03
2018-07-24T12:47:44.336Z,53.99
2018-07-24T12:48:52.386Z,49.90
2018-07-24T12:50:00.442Z,54.47
2018-07-24T12:51:08.583Z,52.14
2018-07-24T12:52:16.791Z,55.64
2018-07-24T12:53:24.886Z,53.40
2018-07-24T12:54:33.051Z,56.81
2018-07-24T12:55:41.025Z,54.47
2018-07-24T12:56:49.100Z,52.06
2018-07-24T12:57:57.206Z,48.36
2018-07-24T12:59:05.233Z,50.19
2018-07-24T13:00:13.312Z,48.44
2018-07-24T13:01:21.407Z,50.68
2018-07-24T13:02:29.617Z,51.45
2018-07-24T13:03:37.580Z,50.68
2018-07-24T13:04:45.617Z,48.63
2018-07-24T13:05:53.711Z,49.71
2018-07-24T13:07:01.806Z,56.41
2018-07-24T13:08:09.861Z,54.18
2018-07-24T13:09:17.943Z,55.64
2018-07-24T13:10:25.990Z,48.34
2018-07-24T13:11:34.089Z,47.76
2018-07-24T13:12:42.161Z,45.91
2018-07-24T13:13:50.241Z,47.54
2018-07-24T13:14:58.520Z,52.11
2018-07-24T13:16:07.021Z,53.01
2018-07-24T13:17:14.696Z,56.12
2018-07-24T13:18:22.940Z,55.74
2018-07-24T13:19:31.019Z,54.28
2018-07-24T13:20:39.075Z,52.72
2018-07-24T13:21:47.148Z,55.25
2018-07-24T13:22:55.215Z,52.53
2018-07-24T13:24:03.309Z,53.59
2018-07-24T13:25:11.382Z,55.05
2018-07-24T13:26:19.472Z,53.89
2018-07-24T13:27:27.535Z,51.65
2018-07-24T13:28:36.366Z,46.50
2018-07-24T13:29:43.709Z,47.56
2018-07-24T13:30:51.812Z,48.63
2018-07-24T13:32:00.000Z,45.91
2018-07-24T13:33:07.904Z,47.83
2018-07-24T13:34:15.976Z,49.58
2018-07-24T13:35:24.374Z,52.01
2018-07-24T13:36:32.129Z,49.99
2018-07-24T13:37:40.256Z,46.69
2018-07-24T13:38:48.280Z,50.87
2018-07-24T13:39:56.354Z,51.65
2018-07-24T13:41:04.435Z,50.78
2018-07-24T13:42:12.492Z,51.26
2018-07-24T13:43:20.572Z,47.56
2018-07-24T13:44:28.842Z,47.47
2018-07-24T13:45:36.924Z,48.71
2018-07-24T13:46:44.985Z,46.96
2018-07-24T13:47:53.447Z,49.19
2018-07-24T13:49:01.153Z,47.93
2018-07-24T13:50:09.220Z,49.58
2018-07-24T13:51:17.289Z,50.65
2018-07-24T13:52:25.353Z,49.97
2018-07-24T13:53:33.441Z,53.96
2018-07-24T13:54:41.520Z,55.22
2018-07-24T13:55:49.579Z,52.33
2018-07-24T13:56:57.648Z,51.26
2018-07-24T13:58:05.719Z,53.59
2018-07-24T13:59:14.817Z,49.19
2018-07-24T14:00:21.880Z,54.08
2018-07-24T14:01:29.959Z,51.65
2018-07-24T14:02:38.045Z,51.55
2018-07-24T14:03:46.123Z,51.17
2018-07-24T14:04:54.215Z,45.52
2018-07-24T14:06:02.267Z,45.52
2018-07-24T14:07:10.426Z,47.56
2018-07-24T14:08:18.419Z,47.96
2018-07-24T14:09:26.473Z,48.83
2018-07-24T14:10:34.604Z,50.19
2018-07-24T14:11:42.662Z,55.05
2018-07-24T14:12:50.949Z,49.90
2018-07-24T14:13:58.920Z,50.38
2018-07-24T14:15:07.989Z,47.37
2018-07-24T14:16:14.939Z,49.22
2018-07-24T14:17:22.998Z,50.68
2018-07-24T14:18:31.064Z,46.51
2018-07-24T14:19:39.154Z,47.66
2018-07-24T14:20:47.216Z,46.78
2018-07-24T14:21:55.275Z,48.93
2018-07-24T14:23:03.367Z,52.43
2018-07-24T14:24:12.242Z,50.97
2018-07-24T14:25:20.215Z,51.17
2018-07-24T14:26:27.660Z,47.66
2018-07-24T14:27:35.700Z,47.86
2018-07-24T14:28:43.778Z,48.63
2018-07-24T14:29:51.827Z,49.12
2018-07-24T14:30:59.869Z,49.61
2018-07-24T14:32:07.957Z,50.21
2018-07-24T14:33:16.268Z,50.70
2018-07-24T14:34:24.113Z,47.59
2018-07-24T14:35:32.192Z,44.09
2018-07-24T14:36:40.282Z,47.20
2018-07-24T14:37:48.333Z,44.76
2018-07-24T14:38:56.422Z,46.51
2018-07-24T14:40:04.798Z,46.61
2018-07-24T14:41:12.561Z,48.46